createdAt,value
2023-03-03T00:00:54.934Z,27.48
2023-03-03T00:05:56.559Z,29.25
2023-03-03T00:11:00.911Z,27.98
2023-03-03T00:16:27.798Z,25.77
2023-03-03T00:21:32.519Z,27.10
2023-03-03T00:26:38.778Z,22.27
2023-03-03T00:31:40.486Z,21.48
2023-03-03T00:36:42.601Z,26.20
2023-03-03T00:41:44.335Z,24.08
2023-03-03T00:46:46.005Z,25.63
2023-03-03T00:51:47.675Z,26.67
2023-03-03T00:56:49.332Z,23.73
2023-03-03T01:01:51.613Z,27.67
2023-03-03T01:06:53.426Z,27.35
2023-03-03T01:11:56.225Z,23.48
2023-03-03T01:16:58.506Z,29.08
2023-03-03T01:22:00.207Z,26.35
2023-03-03T01:27:01.852Z,29.50
2023-03-03T01:32:03.706Z,25.38
2023-03-03T01:37:05.464Z,25.00
2023-03-03T01:42:08.118Z,26.10
2023-03-03T01:47:29.135Z,28.48
2023-03-03T01:52:36.263Z,24.98
2023-03-03T01:57:41.642Z,27.05
2023-03-03T02:02:43.985Z,26.02
2023-03-03T02:07:45.956Z,23.55
2023-03-03T02:12:53.464Z,23.80
2023-03-03T02:18:00.533Z,24.08
2023-03-03T02:23:17.612Z,20.33
2023-03-03T02:28:23.810Z,22.75
2023-03-03T02:33:26.094Z,20.17
2023-03-03T02:38:31.593Z,18.23
2023-03-03T02:43:39.787Z,23.52
2023-03-03T02:48:41.671Z,23.15
2023-03-03T02:53:44.664Z,22.15
2023-03-03T02:58:47.304Z,19.05
2023-03-03T03:03:49.266Z,20.52
2023-03-03T03:08:55.529Z,20.80
2023-03-03T03:13:57.421Z,22.40
2023-03-03T03:19:00.771Z,22.40
2023-03-03T03:24:03.728Z,20.77
2023-03-03T03:29:06.436Z,21.35
2023-03-03T03:34:08.651Z,18.05
2023-03-03T03:39:10.350Z,20.55
2023-03-03T03:44:16.838Z,18.00
2023-03-03T03:49:20.772Z,19.58
2023-03-03T03:54:24.047Z,20.90
2023-03-03T03:59:26.706Z,19.52
2023-03-03T04:04:29.135Z,20.38
2023-03-03T04:09:31.435Z,22.63
2023-03-03T04:14:33.553Z,22.42
2023-03-03T04:19:36.399Z,21.77
2023-03-03T04:24:40.848Z,20.25
2023-03-03T04:29:42.800Z,19.02
2023-03-03T04:34:47.347Z,18.17
2023-03-03T04:39:50.710Z,20.77
2023-03-03T04:44:52.489Z,18.85
2023-03-03T04:49:54.199Z,16.52
2023-03-03T04:54:56.723Z,20.02
2023-03-03T04:59:58.467Z,19.27
2023-03-03T05:05:00.462Z,20.10
2023-03-03T05:10:02.515Z,18.77
2023-03-03T05:15:05.383Z,16.60
2023-03-03T05:20:08.582Z,18.30
2023-03-03T05:25:11.192Z,17.58
2023-03-03T05:30:13.222Z,17.92
2023-03-03T05:35:14.843Z,17.52
2023-03-03T05:40:16.624Z,15.48
2023-03-03T05:45:21.623Z,15.13
2023-03-03T05:50:23.706Z,16.48
2023-03-03T05:55:25.697Z,16.10
2023-03-03T06:00:27.473Z,17.05
2023-03-03T06:05:29.140Z,18.98
2023-03-03T06:10:31.016Z,15.82
2023-03-03T06:15:36.140Z,18.17
2023-03-03T06:20:38.824Z,16.70
2023-03-03T06:25:40.779Z,15.40
2023-03-03T06:30:42.657Z,15.10
2023-03-03T06:35:44.423Z,14.90
2023-03-03T06:40:46.714Z,17.88
2023-03-03T06:45:48.477Z,14.10
2023-03-03T06:50:50.319Z,15.60
2023-03-03T06:55:52.458Z,15.45
2023-03-03T07:01:00.615Z,12.25
2023-03-03T07:06:09.715Z,14.95
2023-03-03T07:11:13.874Z,12.93
2023-03-03T07:16:16.793Z,13.35
2023-03-03T07:21:32.105Z,14.90
2023-03-03T07:26:34.010Z,11.25
2023-03-03T07:31:42.174Z,14.38
2023-03-03T07:36:44.850Z,13.07
2023-03-03T07:41:46.511Z,13.00
2023-03-03T07:46:49.227Z,13.13
2023-03-03T07:51:57.412Z,12.75
2023-03-03T07:57:06.180Z,12.18
2023-03-03T08:02:30.885Z,12.55
2023-03-03T08:07:35.760Z,11.70
2023-03-03T08:12:39.267Z,11.48
2023-03-03T08:17:42.822Z,10.50
2023-03-03T08:22:44.441Z,10.70
2023-03-03T08:27:46.089Z,10.85
2023-03-03T08:32:47.777Z,11.13
2023-03-03T08:37:49.592Z,9.30
2023-03-03T08:42:51.236Z,12.32
2023-03-03T08:47:52.970Z,10.55
2023-03-03T08:52:55.508Z,11.88
2023-03-03T08:57:57.493Z,11.63
2023-03-03T09:02:59.482Z,13.43
2023-03-03T09:08:01.568Z,12.00
2023-03-03T09:13:09.414Z,11.75
2023-03-03T09:18:18.539Z,11.05
2023-03-03T09:23:42.548Z,12.60
2023-03-03T09:28:44.173Z,10.13
2023-03-03T09:33:47.417Z,9.50
2023-03-03T09:38:49.161Z,11.70
2023-03-03T09:44:06.243Z,8.43
2023-03-03T09:49:29.689Z,6.95
2023-03-03T09:54:41.862Z,5.15
2023-03-03T09:59:55.054Z,7.57
2023-03-03T10:05:14.340Z,7.38
2023-03-03T10:10:50.169Z,8.70
2023-03-03T10:15:51.704Z,9.10
2023-03-03T10:21:05.916Z,7.85
2023-03-03T10:26:50.736Z,7.32
2023-03-03T10:32:09.476Z,5.82
2023-03-03T10:37:21.729Z,5.35
2023-03-03T10:42:41.174Z,5.82
2023-03-03T10:47:45.751Z,4.78
2023-03-03T10:52:55.264Z,3.47
2023-03-03T10:58:23.258Z,4.43
2023-03-03T11:03:49.954Z,5.57
2023-03-03T11:09:11.102Z,4.18
2023-03-03T11:15:00.973Z,4.90
2023-03-03T11:20:21.765Z,4.85
2023-03-03T11:25:32.177Z,4.95
2023-03-03T11:30:50.805Z,6.03
2023-03-03T11:35:58.443Z,5.97
2023-03-03T11:41:08.991Z,4.47
2023-03-03T11:46:17.471Z,5.07
2023-03-03T11:51:43.555Z,4.07
2023-03-03T11:56:46.537Z,4.13
2023-03-03T12:02:02.452Z,5.30
2023-03-03T12:07:35.072Z,3.97
2023-03-03T12:12:39.797Z,4.05
2023-03-03T12:18:09.427Z,4.45
2023-03-03T12:23:35.633Z,3.55
2023-03-03T12:28:59.540Z,3.75
2023-03-03T12:34:33.601Z,3.00
2023-03-03T12:40:08.224Z,2.25
2023-03-03T12:45:48.310Z,3.33
2023-03-03T12:51:47.266Z,3.05
2023-03-03T12:57:02.060Z,2.55
2023-03-03T13:02:35.698Z,5.50
2023-03-03T13:07:50.577Z,3.33
2023-03-03T13:13:01.845Z,3.10
2023-03-03T13:18:12.593Z,4.20
2023-03-03T13:23:46.570Z,4.50
2023-03-03T13:29:13.377Z,4.45
2023-03-03T13:34:41.641Z,3.42
2023-03-03T13:39:51.206Z,3.67
2023-03-03T13:44:55.663Z,4.60
2023-03-03T13:50:01.995Z,3.55
2023-03-03T13:55:07.281Z,4.82
2023-03-03T14:00:47.529Z,4.85
2023-03-03T14:05:51.459Z,5.25
2023-03-03T14:10:59.189Z,3.67
2023-03-03T14:16:03.598Z,5.45
2023-03-03T14:21:12.354Z,4.90
2023-03-03T14:26:14.235Z,5.20
2023-03-03T14:31:19.336Z,4.75
2023-03-03T14:36:30.189Z,3.42
2023-03-03T14:41:39.120Z,6.00
2023-03-03T14:46:49.527Z,3.95
2023-03-03T14:52:33.396Z,5.50
2023-03-03T14:57:46.698Z,4.40
2023-03-03T15:03:26.754Z,3.80
2023-03-03T15:08:44.448Z,4.35
2023-03-03T15:14:30.197Z,4.72
2023-03-03T15:19:49.483Z,5.82
2023-03-03T15:25:02.211Z,5.90
2023-03-03T15:30:22.231Z,5.15
2023-03-03T15:35:41.712Z,7.18
2023-03-03T15:41:15.068Z,5.80
2023-03-03T15:46:40.603Z,5.05
2023-03-03T15:52:23.016Z,6.15
2023-03-03T15:57:43.800Z,5.63
2023-03-03T16:03:46.923Z,5.47
2023-03-03T16:09:04.237Z,8.05
2023-03-03T16:14:44.435Z,7.28
2023-03-03T16:20:25.785Z,9.80
2023-03-03T16:25:40.057Z,10.18
2023-03-03T16:31:21.189Z,10.63
2023-03-03T16:37:01.790Z,10.93
2023-03-03T16:42:18.245Z,8.68
2023-03-03T16:47:54.375Z,11.27
2023-03-03T16:53:07.124Z,11.45
2023-03-03T16:58:26.122Z,10.60
2023-03-03T17:03:47.344Z,10.48
2023-03-03T17:09:32.535Z,12.10
2023-03-03T17:15:30.016Z,11.77
2023-03-03T17:20:54.804Z,9.38
2023-03-03T17:26:39.797Z,10.20
2023-03-03T17:32:19.109Z,12.48
2023-03-03T17:37:43.851Z,11.80
2023-03-03T17:42:58.206Z,12.98
2023-03-03T17:48:19.770Z,14.23
2023-03-03T17:53:51.696Z,13.55
2023-03-03T17:59:19.640Z,13.60
2023-03-03T18:04:33.549Z,14.32
2023-03-03T18:10:24.261Z,12.65
2023-03-03T18:16:01.994Z,14.77
2023-03-03T18:21:43.672Z,15.43
2023-03-03T18:26:45.749Z,13.38
2023-03-03T18:32:00.592Z,16.23
2023-03-03T18:37:02.220Z,15.02
2023-03-03T18:42:08.573Z,16.52
2023-03-03T18:47:10.775Z,14.18
2023-03-03T18:52:22.954Z,15.63
2023-03-03T18:57:25.047Z,16.52
2023-03-03T19:02:30.063Z,14.50
2023-03-03T19:07:40.887Z,14.00
2023-03-03T19:12:47.269Z,13.70
2023-03-03T19:17:49.978Z,13.18
2023-03-03T19:23:00.838Z,12.70
2023-03-03T19:28:14.753Z,12.98
2023-03-03T19:33:30.288Z,12.52
2023-03-03T19:38:32.326Z,14.18
2023-03-03T19:43:43.352Z,12.05
2023-03-03T19:48:53.288Z,12.50
2023-03-03T19:54:22.954Z,12.25
2023-03-03T19:59:38.626Z,14.25
2023-03-03T20:04:46.256Z,13.70
2023-03-03T20:10:15.755Z,13.30
2023-03-03T20:15:20.486Z,13.52
2023-03-03T20:20:45.208Z,13.60
2023-03-03T20:25:51.258Z,13.77
2023-03-03T20:31:05.125Z,13.30
2023-03-03T20:36:44.085Z,13.15
2023-03-03T20:42:05.649Z,12.32
2023-03-03T20:47:19.429Z,13.77
2023-03-03T20:52:37.334Z,12.30
2023-03-03T20:57:57.736Z,12.77
2023-03-03T21:03:19.761Z,12.77
2023-03-03T21:08:21.554Z,14.25
2023-03-03T21:13:32.167Z,14.40
2023-03-03T21:18:33.792Z,16.48
2023-03-03T21:23:35.533Z,13.35
2023-03-03T21:28:37.135Z,14.70
2023-03-03T21:33:41.911Z,16.50
2023-03-03T21:38:45.426Z,15.50
2023-03-03T21:43:49.300Z,15.52
2023-03-03T21:48:52.035Z,16.45
2023-03-03T21:53:53.687Z,15.02
2023-03-03T21:58:55.351Z,17.52
2023-03-03T22:03:56.957Z,16.98
2023-03-03T22:08:58.691Z,16.33
2023-03-03T22:14:00.438Z,16.95
2023-03-03T22:19:03.044Z,15.50
2023-03-03T22:24:05.648Z,15.25
2023-03-03T22:29:07.314Z,16.60
2023-03-03T22:34:08.962Z,17.25
2023-03-03T22:39:10.731Z,16.73
2023-03-03T22:44:12.433Z,15.73
2023-03-03T22:49:14.055Z,15.43
2023-03-03T22:54:15.664Z,13.52
2023-03-03T22:59:17.338Z,13.80
2023-03-03T23:04:18.982Z,14.27
2023-03-03T23:09:20.636Z,15.05
2023-03-03T23:14:22.237Z,13.32
2023-03-03T23:19:23.923Z,13.90
2023-03-03T23:24:25.522Z,14.57
2023-03-03T23:29:27.193Z,13.68
2023-03-03T23:34:28.850Z,13.25
2023-03-03T23:39:30.545Z,14.10
2023-03-03T23:44:32.174Z,13.05
2023-03-03T23:49:34.839Z,11.50
2023-03-03T23:54:36.438Z,13.35
2023-03-03T23:59:38.076Z,13.52
